sensor_id;sensor_type;location;lat;lon;timestamp;P1;durP1;ratioP1;P2;durP2;ratioP2
56541;SDS011;42438;53.174;6.730;2023-06-22T00:01:11;10.98;;;8.98;;
56541;SDS011;42438;53.174;6.730;2023-06-22T00:03:41;8.93;;;7.15;;
56541;SDS011;42438;53.174;6.730;2023-06-22T00:06:12;14.23;;;7.93;;
56541;SDS011;42438;53.174;6.730;2023-06-22T00:08:43;9.50;;;7.82;;
56541;SDS011;42438;53.174;6.730;2023-06-22T00:11:13;18.85;;;13.32;;
56541;SDS011;42438;53.174;6.730;2023-06-22T00:13:44;17.13;;;13.55;;
56541;SDS011;42438;53.174;6.730;2023-06-22T00:16:14;18.17;;;13.52;;
56541;SDS011;42438;53.174;6.730;2023-06-22T00:18:45;14.82;;;12.40;;
56541;SDS011;42438;53.174;6.730;2023-06-22T00:21:17;15.65;;;11.60;;
56541;SDS011;42438;53.174;6.730;2023-06-22T00:23:50;15.77;;;10.75;;
56541;SDS011;42438;53.174;6.730;2023-06-22T00:26:21;16.08;;;11.25;;
56541;SDS011;42438;53.174;6.730;2023-06-22T00:28:51;16.40;;;12.35;;
56541;SDS011;42438;53.174;6.730;2023-06-22T00:31:22;11.98;;;9.80;;
56541;SDS011;42438;53.174;6.730;2023-06-22T00:33:52;7.38;;;6.38;;
56541;SDS011;42438;53.174;6.730;2023-06-22T00:36:23;8.73;;;6.20;;
56541;SDS011;42438;53.174;6.730;2023-06-22T00:38:54;4.80;;;4.30;;
56541;SDS011;42438;53.174;6.730;2023-06-22T00:41:25;12.45;;;6.38;;
56541;SDS011;42438;53.174;6.730;2023-06-22T00:43:58;8.68;;;6.85;;
56541;SDS011;42438;53.174;6.730;2023-06-22T00:46:29;10.32;;;8.13;;
56541;SDS011;42438;53.174;6.730;2023-06-22T00:48:59;12.77;;;9.27;;
56541;SDS011;42438;53.174;6.730;2023-06-22T00:51:30;17.38;;;12.52;;
56541;SDS011;42438;53.174;6.730;2023-06-22T00:54:03;13.15;;;10.82;;
56541;SDS011;42438;53.174;6.730;2023-06-22T00:56:35;9.75;;;8.10;;
56541;SDS011;42438;53.174;6.730;2023-06-22T00:59:07;7.07;;;6.10;;
56541;SDS011;42438;53.174;6.730;2023-06-22T01:01:42;6.22;;;5.63;;
56541;SDS011;42438;53.174;6.730;2023-06-22T01:04:12;8.18;;;6.35;;
56541;SDS011;42438;53.174;6.730;2023-06-22T01:06:59;11.30;;;7.90;;
56541;SDS011;42438;53.174;6.730;2023-06-22T01:09:56;14.35;;;10.77;;
56541;SDS011;42438;53.174;6.730;2023-06-22T01:12:54;7.43;;;6.70;;
56541;SDS011;42438;53.174;6.730;2023-06-22T01:15:37;24.50;;;7.60;;
56541;SDS011;42438;53.174;6.730;2023-06-22T01:18:14;15.52;;;7.50;;
56541;SDS011;42438;53.174;6.730;2023-06-22T01:20:46;14.55;;;8.02;;
56541;SDS011;42438;53.174;6.730;2023-06-22T01:29:19;9.60;;;7.50;;
56541;SDS011;42438;53.174;6.730;2023-06-22T01:31:52;8.93;;;7.65;;
56541;SDS011;42438;53.174;6.730;2023-06-22T01:34:26;10.63;;;9.07;;
56541;SDS011;42438;53.174;6.730;2023-06-22T01:36:59;9.65;;;8.75;;
56541;SDS011;42438;53.174;6.730;2023-06-22T01:39:32;9.15;;;8.25;;
56541;SDS011;42438;53.174;6.730;2023-06-22T01:42:03;10.60;;;9.38;;
56541;SDS011;42438;53.174;6.730;2023-06-22T01:44:35;13.30;;;11.02;;
56541;SDS011;42438;53.174;6.730;2023-06-22T01:47:07;13.80;;;10.48;;
56541;SDS011;42438;53.174;6.730;2023-06-22T01:49:38;13.18;;;10.10;;
56541;SDS011;42438;53.174;6.730;2023-06-22T01:52:10;8.82;;;7.85;;
56541;SDS011;42438;53.174;6.730;2023-06-22T01:54:41;29.80;;;6.95;;
56541;SDS011;42438;53.174;6.730;2023-06-22T01:57:12;18.30;;;7.07;;
56541;SDS011;42438;53.174;6.730;2023-06-22T01:59:46;69.07;;;10.15;;
56541;SDS011;42438;53.174;6.730;2023-06-22T02:02:27;9.20;;;6.97;;
56541;SDS011;42438;53.174;6.730;2023-06-22T02:05:20;17.00;;;10.68;;
56541;SDS011;42438;53.174;6.730;2023-06-22T02:08:02;17.15;;;8.52;;
56541;SDS011;42438;53.174;6.730;2023-06-22T02:10:40;21.35;;;8.18;;
56541;SDS011;42438;53.174;6.730;2023-06-22T02:13:12;15.52;;;9.65;;
56541;SDS011;42438;53.174;6.730;2023-06-22T02:15:44;19.02;;;9.68;;
56541;SDS011;42438;53.174;6.730;2023-06-22T02:18:16;19.00;;;9.48;;
56541;SDS011;42438;53.174;6.730;2023-06-22T02:20:46;17.48;;;9.68;;
56541;SDS011;42438;53.174;6.730;2023-06-22T02:23:17;18.17;;;10.75;;
56541;SDS011;42438;53.174;6.730;2023-06-22T02:25:48;23.63;;;10.52;;
56541;SDS011;42438;53.174;6.730;2023-06-22T02:28:19;21.00;;;11.18;;
56541;SDS011;42438;53.174;6.730;2023-06-22T02:30:49;21.95;;;12.77;;
56541;SDS011;42438;53.174;6.730;2023-06-22T02:33:20;28.58;;;15.77;;
56541;SDS011;42438;53.174;6.730;2023-06-22T02:35:51;27.83;;;13.93;;
56541;SDS011;42438;53.174;6.730;2023-06-22T02:38:22;25.40;;;12.27;;
56541;SDS011;42438;53.174;6.730;2023-06-22T02:40:55;20.48;;;12.43;;
56541;SDS011;42438;53.174;6.730;2023-06-22T02:43:25;17.17;;;11.82;;
56541;SDS011;42438;53.174;6.730;2023-06-22T02:45:56;18.85;;;12.43;;
56541;SDS011;42438;53.174;6.730;2023-06-22T02:48:27;18.33;;;12.77;;
56541;SDS011;42438;53.174;6.730;2023-06-22T02:50:57;17.83;;;12.00;;
56541;SDS011;42438;53.174;6.730;2023-06-22T02:53:28;19.42;;;13.88;;
56541;SDS011;42438;53.174;6.730;2023-06-22T02:55:58;22.27;;;14.18;;
56541;SDS011;42438;53.174;6.730;2023-06-22T02:58:31;18.17;;;12.93;;
56541;SDS011;42438;53.174;6.730;2023-06-22T03:01:08;18.92;;;12.77;;
56541;SDS011;42438;53.174;6.730;2023-06-22T03:03:40;20.10;;;13.55;;
56541;SDS011;42438;53.174;6.730;2023-06-22T03:06:10;19.65;;;15.13;;
56541;SDS011;42438;53.174;6.730;2023-06-22T03:08:43;17.50;;;14.35;;
56541;SDS011;42438;53.174;6.730;2023-06-22T03:11:14;54.05;;;15.70;;
56541;SDS011;42438;53.174;6.730;2023-06-22T03:13:45;18.00;;;15.00;;
56541;SDS011;42438;53.174;6.730;2023-06-22T03:16:16;17.35;;;15.52;;
56541;SDS011;42438;53.174;6.730;2023-06-22T03:18:47;18.45;;;16.05;;
56541;SDS011;42438;53.174;6.730;2023-06-22T03:21:17;18.75;;;15.55;;
56541;SDS011;42438;53.174;6.730;2023-06-22T03:23:48;21.23;;;13.70;;
56541;SDS011;42438;53.174;6.730;2023-06-22T03:26:19;23.33;;;14.45;;
56541;SDS011;42438;53.174;6.730;2023-06-22T03:28:50;26.77;;;14.13;;
56541;SDS011;42438;53.174;6.730;2023-06-22T03:31:21;14.32;;;12.82;;
56541;SDS011;42438;53.174;6.730;2023-06-22T03:33:52;13.80;;;12.30;;
56541;SDS011;42438;53.174;6.730;2023-06-22T03:36:23;14.93;;;13.43;;
56541;SDS011;42438;53.174;6.730;2023-06-22T03:38:54;13.30;;;11.95;;
56541;SDS011;42438;53.174;6.730;2023-06-22T03:41:25;14.65;;;13.05;;
56541;SDS011;42438;53.174;6.730;2023-06-22T03:43:56;14.60;;;13.05;;
56541;SDS011;42438;53.174;6.730;2023-06-22T03:46:26;15.68;;;13.43;;
56541;SDS011;42438;53.174;6.730;2023-06-22T03:48:57;17.85;;;15.02;;
56541;SDS011;42438;53.174;6.730;2023-06-22T03:51:28;18.27;;;15.48;;
56541;SDS011;42438;53.174;6.730;2023-06-22T03:53:59;19.13;;;16.08;;
56541;SDS011;42438;53.174;6.730;2023-06-22T03:56:30;14.60;;;13.00;;
56541;SDS011;42438;53.174;6.730;2023-06-22T03:59:01;12.75;;;11.55;;
56541;SDS011;42438;53.174;6.730;2023-06-22T04:01:32;12.57;;;11.30;;
56541;SDS011;42438;53.174;6.730;2023-06-22T04:04:03;13.93;;;11.02;;
56541;SDS011;42438;53.174;6.730;2023-06-22T04:06:33;13.43;;;10.05;;
56541;SDS011;42438;53.174;6.730;2023-06-22T04:09:05;16.42;;;11.10;;
56541;SDS011;42438;53.174;6.730;2023-06-22T04:11:36;14.57;;;9.93;;
56541;SDS011;42438;53.174;6.730;2023-06-22T04:14:07;11.60;;;10.40;;
56541;SDS011;42438;53.174;6.730;2023-06-22T04:16:38;12.60;;;11.30;;
56541;SDS011;42438;53.174;6.730;2023-06-22T04:19:08;13.27;;;11.88;;
56541;SDS011;42438;53.174;6.730;2023-06-22T04:21:46;13.48;;;11.93;;
56541;SDS011;42438;53.174;6.730;2023-06-22T04:24:18;13.80;;;12.18;;
56541;SDS011;42438;53.174;6.730;2023-06-22T04:26:49;15.65;;;12.95;;
56541;SDS011;42438;53.174;6.730;2023-06-22T04:29:23;15.98;;;14.15;;
56541;SDS011;42438;53.174;6.730;2023-06-22T04:31:58;24.20;;;15.82;;
56541;SDS011;42438;53.174;6.730;2023-06-22T04:34:33;20.88;;;14.95;;
56541;SDS011;42438;53.174;6.730;2023-06-22T04:37:03;18.13;;;14.63;;
56541;SDS011;42438;53.174;6.730;2023-06-22T04:39:34;24.40;;;15.75;;
56541;SDS011;42438;53.174;6.730;2023-06-22T04:42:06;19.80;;;15.90;;
56541;SDS011;42438;53.174;6.730;2023-06-22T04:44:36;20.67;;;17.23;;
56541;SDS011;42438;53.174;6.730;2023-06-22T04:47:07;19.52;;;16.65;;
56541;SDS011;42438;53.174;6.730;2023-06-22T04:49:41;17.63;;;14.57;;
56541;SDS011;42438;53.174;6.730;2023-06-22T04:52:13;17.30;;;15.20;;
56541;SDS011;42438;53.174;6.730;2023-06-22T04:54:47;19.15;;;16.35;;
56541;SDS011;42438;53.174;6.730;2023-06-22T04:57:20;36.33;;;23.95;;
56541;SDS011;42438;53.174;6.730;2023-06-22T05:00:02;34.70;;;23.30;;
56541;SDS011;42438;53.174;6.730;2023-06-22T05:02:42;43.95;;;28.70;;
56541;SDS011;42438;53.174;6.730;2023-06-22T05:05:15;49.63;;;31.23;;
56541;SDS011;42438;53.174;6.730;2023-06-22T05:07:46;47.13;;;28.70;;
56541;SDS011;42438;53.174;6.730;2023-06-22T05:10:20;48.40;;;29.80;;
56541;SDS011;42438;53.174;6.730;2023-06-22T05:12:51;45.10;;;29.08;;
56541;SDS011;42438;53.174;6.730;2023-06-22T05:15:22;40.63;;;26.23;;
56541;SDS011;42438;53.174;6.730;2023-06-22T05:17:56;42.45;;;27.88;;
56541;SDS011;42438;53.174;6.730;2023-06-22T05:20:28;41.60;;;26.73;;
56541;SDS011;42438;53.174;6.730;2023-06-22T05:22:59;39.30;;;25.92;;
56541;SDS011;42438;53.174;6.730;2023-06-22T05:25:29;38.40;;;24.27;;
56541;SDS011;42438;53.174;6.730;2023-06-22T05:28:02;33.63;;;22.35;;
56541;SDS011;42438;53.174;6.730;2023-06-22T05:30:41;38.90;;;24.55;;
56541;SDS011;42438;53.174;6.730;2023-06-22T05:33:11;39.63;;;25.63;;
56541;SDS011;42438;53.174;6.730;2023-06-22T05:35:42;34.63;;;23.85;;
56541;SDS011;42438;53.174;6.730;2023-06-22T05:38:13;33.75;;;22.75;;
56541;SDS011;42438;53.174;6.730;2023-06-22T05:40:44;35.88;;;22.60;;
56541;SDS011;42438;53.174;6.730;2023-06-22T05:43:15;38.20;;;25.08;;
56541;SDS011;42438;53.174;6.730;2023-06-22T05:45:45;34.20;;;23.13;;
56541;SDS011;42438;53.174;6.730;2023-06-22T05:48:16;36.55;;;23.10;;
56541;SDS011;42438;53.174;6.730;2023-06-22T05:50:46;28.02;;;20.23;;
56541;SDS011;42438;53.174;6.730;2023-06-22T05:53:17;30.70;;;19.50;;
56541;SDS011;42438;53.174;6.730;2023-06-22T05:55:48;28.95;;;19.15;;
56541;SDS011;42438;53.174;6.730;2023-06-22T05:58:18;29.10;;;18.88;;
56541;SDS011;42438;53.174;6.730;2023-06-22T06:00:49;29.30;;;19.20;;
56541;SDS011;42438;53.174;6.730;2023-06-22T06:03:20;26.60;;;18.30;;
56541;SDS011;42438;53.174;6.730;2023-06-22T06:05:50;24.67;;;17.73;;
56541;SDS011;42438;53.174;6.730;2023-06-22T06:08:21;23.58;;;16.42;;
56541;SDS011;42438;53.174;6.730;2023-06-22T06:10:52;24.27;;;16.50;;
56541;SDS011;42438;53.174;6.730;2023-06-22T06:13:24;22.35;;;15.77;;
56541;SDS011;42438;53.174;6.730;2023-06-22T06:15:54;23.85;;;16.17;;
56541;SDS011;42438;53.174;6.730;2023-06-22T06:18:26;22.73;;;16.17;;
56541;SDS011;42438;53.174;6.730;2023-06-22T06:20:56;20.35;;;14.90;;
56541;SDS011;42438;53.174;6.730;2023-06-22T06:23:27;20.33;;;14.43;;
56541;SDS011;42438;53.174;6.730;2023-06-22T06:25:57;19.10;;;13.48;;
56541;SDS011;42438;53.174;6.730;2023-06-22T06:28:28;18.45;;;13.18;;
56541;SDS011;42438;53.174;6.730;2023-06-22T06:30:59;17.63;;;12.40;;
56541;SDS011;42438;53.174;6.730;2023-06-22T06:33:29;15.50;;;11.60;;
56541;SDS011;42438;53.174;6.730;2023-06-22T06:36:01;17.83;;;12.52;;
56541;SDS011;42438;53.174;6.730;2023-06-22T06:38:33;16.13;;;11.63;;
56541;SDS011;42438;53.174;6.730;2023-06-22T06:41:04;18.25;;;12.55;;
56541;SDS011;42438;53.174;6.730;2023-06-22T06:43:34;18.92;;;11.95;;
56541;SDS011;42438;53.174;6.730;2023-06-22T06:46:05;15.73;;;12.05;;
56541;SDS011;42438;53.174;6.730;2023-06-22T06:48:36;17.25;;;11.23;;
56541;SDS011;42438;53.174;6.730;2023-06-22T06:51:06;15.77;;;11.00;;
56541;SDS011;42438;53.174;6.730;2023-06-22T06:53:39;15.70;;;11.60;;
56541;SDS011;42438;53.174;6.730;2023-06-22T06:56:10;15.40;;;11.52;;
56541;SDS011;42438;53.174;6.730;2023-06-22T06:58:41;16.10;;;11.98;;
56541;SDS011;42438;53.174;6.730;2023-06-22T07:01:12;15.90;;;11.40;;
56541;SDS011;42438;53.174;6.730;2023-06-22T07:03:43;19.90;;;12.32;;
56541;SDS011;42438;53.174;6.730;2023-06-22T07:06:14;16.88;;;11.95;;
56541;SDS011;42438;53.174;6.730;2023-06-22T07:08:44;18.27;;;12.02;;
56541;SDS011;42438;53.174;6.730;2023-06-22T07:11:15;17.38;;;12.55;;
56541;SDS011;42438;53.174;6.730;2023-06-22T07:13:46;21.83;;;12.15;;
56541;SDS011;42438;53.174;6.730;2023-06-22T07:16:16;19.20;;;11.50;;
56541;SDS011;42438;53.174;6.730;2023-06-22T07:18:48;11.30;;;8.48;;
56541;SDS011;42438;53.174;6.730;2023-06-22T07:21:19;12.23;;;8.07;;
56541;SDS011;42438;53.174;6.730;2023-06-22T07:23:49;13.32;;;8.40;;
56541;SDS011;42438;53.174;6.730;2023-06-22T07:26:20;13.05;;;8.13;;
56541;SDS011;42438;53.174;6.730;2023-06-22T07:28:51;10.57;;;7.45;;
56541;SDS011;42438;53.174;6.730;2023-06-22T07:31:23;11.25;;;7.88;;
56541;SDS011;42438;53.174;6.730;2023-06-22T07:36:25;12.07;;;8.10;;
56541;SDS011;42438;53.174;6.730;2023-06-22T07:38:56;11.10;;;7.57;;
56541;SDS011;42438;53.174;6.730;2023-06-22T07:41:26;12.63;;;8.77;;
56541;SDS011;42438;53.174;6.730;2023-06-22T07:43:57;14.13;;;9.35;;
56541;SDS011;42438;53.174;6.730;2023-06-22T07:46:28;11.88;;;8.48;;
56541;SDS011;42438;53.174;6.730;2023-06-22T07:49:00;13.27;;;8.45;;
56541;SDS011;42438;53.174;6.730;2023-06-22T07:51:31;12.45;;;7.82;;
56541;SDS011;42438;53.174;6.730;2023-06-22T07:54:02;10.27;;;7.90;;
56541;SDS011;42438;53.174;6.730;2023-06-22T07:56:32;14.93;;;10.32;;
56541;SDS011;42438;53.174;6.730;2023-06-22T07:59:03;15.23;;;10.98;;
56541;SDS011;42438;53.174;6.730;2023-06-22T08:01:34;16.00;;;10.60;;
56541;SDS011;42438;53.174;6.730;2023-06-22T08:04:05;12.95;;;7.93;;
56541;SDS011;42438;53.174;6.730;2023-06-22T08:06:35;11.35;;;8.13;;
56541;SDS011;42438;53.174;6.730;2023-06-22T08:09:06;17.38;;;9.75;;
56541;SDS011;42438;53.174;6.730;2023-06-22T08:11:37;13.00;;;8.73;;
56541;SDS011;42438;53.174;6.730;2023-06-22T08:14:07;9.60;;;6.47;;
56541;SDS011;42438;53.174;6.730;2023-06-22T08:16:38;11.40;;;7.47;;
56541;SDS011;42438;53.174;6.730;2023-06-22T08:19:09;11.55;;;7.85;;
56541;SDS011;42438;53.174;6.730;2023-06-22T08:21:39;12.93;;;8.43;;
56541;SDS011;42438;53.174;6.730;2023-06-22T08:24:10;9.98;;;6.47;;
56541;SDS011;42438;53.174;6.730;2023-06-22T08:26:41;11.95;;;7.05;;
56541;SDS011;42438;53.174;6.730;2023-06-22T08:29:11;9.82;;;6.32;;
56541;SDS011;42438;53.174;6.730;2023-06-22T08:31:42;10.70;;;7.07;;
56541;SDS011;42438;53.174;6.730;2023-06-22T08:34:13;12.18;;;7.75;;
56541;SDS011;42438;53.174;6.730;2023-06-22T08:36:43;10.90;;;6.63;;
56541;SDS011;42438;53.174;6.730;2023-06-22T08:39:15;8.70;;;6.40;;
56541;SDS011;42438;53.174;6.730;2023-06-22T08:41:46;8.95;;;5.65;;
56541;SDS011;42438;53.174;6.730;2023-06-22T08:44:18;9.85;;;6.30;;
56541;SDS011;42438;53.174;6.730;2023-06-22T08:46:49;8.97;;;6.10;;
56541;SDS011;42438;53.174;6.730;2023-06-22T08:49:20;9.15;;;5.50;;
56541;SDS011;42438;53.174;6.730;2023-06-22T08:51:50;10.38;;;6.20;;
56541;SDS011;42438;53.174;6.730;2023-06-22T08:54:23;10.65;;;6.03;;
56541;SDS011;42438;53.174;6.730;2023-06-22T08:56:54;9.07;;;5.70;;
56541;SDS011;42438;53.174;6.730;2023-06-22T08:59:24;9.23;;;5.30;;
56541;SDS011;42438;53.174;6.730;2023-06-22T09:01:55;8.63;;;5.63;;
56541;SDS011;42438;53.174;6.730;2023-06-22T09:04:26;9.23;;;5.60;;
56541;SDS011;42438;53.174;6.730;2023-06-22T09:06:57;7.47;;;4.78;;
56541;SDS011;42438;53.174;6.730;2023-06-22T09:09:27;7.50;;;4.60;;
56541;SDS011;42438;53.174;6.730;2023-06-22T09:11:58;7.03;;;5.00;;
56541;SDS011;42438;53.174;6.730;2023-06-22T09:14:29;7.35;;;5.32;;
56541;SDS011;42438;53.174;6.730;2023-06-22T09:17:00;12.05;;;5.45;;
56541;SDS011;42438;53.174;6.730;2023-06-22T09:19:30;9.75;;;6.15;;
56541;SDS011;42438;53.174;6.730;2023-06-22T09:22:01;7.78;;;5.20;;
56541;SDS011;42438;53.174;6.730;2023-06-22T09:24:32;10.95;;;5.90;;
56541;SDS011;42438;53.174;6.730;2023-06-22T09:27:03;6.38;;;4.55;;
56541;SDS011;42438;53.174;6.730;2023-06-22T09:29:33;10.10;;;5.97;;
56541;SDS011;42438;53.174;6.730;2023-06-22T09:32:04;8.18;;;5.43;;
56541;SDS011;42438;53.174;6.730;2023-06-22T09:34:35;9.88;;;6.05;;
56541;SDS011;42438;53.174;6.730;2023-06-22T09:37:06;8.43;;;6.22;;
56541;SDS011;42438;53.174;6.730;2023-06-22T09:39:36;8.88;;;5.35;;
56541;SDS011;42438;53.174;6.730;2023-06-22T09:42:07;10.20;;;6.60;;
56541;SDS011;42438;53.174;6.730;2023-06-22T09:44:38;8.98;;;6.80;;
56541;SDS011;42438;53.174;6.730;2023-06-22T09:47:09;12.05;;;6.35;;
56541;SDS011;42438;53.174;6.730;2023-06-22T09:49:40;10.20;;;7.50;;
56541;SDS011;42438;53.174;6.730;2023-06-22T09:52:10;10.40;;;6.63;;
56541;SDS011;42438;53.174;6.730;2023-06-22T09:54:41;9.02;;;6.20;;
56541;SDS011;42438;53.174;6.730;2023-06-22T09:57:12;10.57;;;7.88;;
56541;SDS011;42438;53.174;6.730;2023-06-22T09:59:43;9.32;;;6.60;;
56541;SDS011;42438;53.174;6.730;2023-06-22T10:02:13;9.32;;;6.53;;
56541;SDS011;42438;53.174;6.730;2023-06-22T10:04:44;8.15;;;5.60;;
56541;SDS011;42438;53.174;6.730;2023-06-22T10:07:15;11.35;;;6.63;;
56541;SDS011;42438;53.174;6.730;2023-06-22T10:09:45;11.18;;;6.82;;
56541;SDS011;42438;53.174;6.730;2023-06-22T10:12:16;11.73;;;6.00;;
56541;SDS011;42438;53.174;6.730;2023-06-22T10:14:47;11.73;;;7.38;;
56541;SDS011;42438;53.174;6.730;2023-06-22T10:17:17;10.18;;;6.88;;
56541;SDS011;42438;53.174;6.730;2023-06-22T10:19:48;8.63;;;6.75;;
56541;SDS011;42438;53.174;6.730;2023-06-22T10:22:19;12.75;;;9.05;;
56541;SDS011;42438;53.174;6.730;2023-06-22T10:24:49;11.02;;;7.97;;
56541;SDS011;42438;53.174;6.730;2023-06-22T10:27:20;9.35;;;7.00;;
56541;SDS011;42438;53.174;6.730;2023-06-22T10:29:51;9.27;;;6.80;;
56541;SDS011;42438;53.174;6.730;2023-06-22T10:32:21;10.70;;;6.10;;
56541;SDS011;42438;53.174;6.730;2023-06-22T10:34:52;8.85;;;6.43;;
56541;SDS011;42438;53.174;6.730;2023-06-22T10:37:22;10.20;;;6.63;;
56541;SDS011;42438;53.174;6.730;2023-06-22T10:39:53;9.93;;;6.72;;
56541;SDS011;42438;53.174;6.730;2023-06-22T10:42:24;11.98;;;7.60;;
56541;SDS011;42438;53.174;6.730;2023-06-22T10:44:54;10.95;;;7.47;;
56541;SDS011;42438;53.174;6.730;2023-06-22T10:47:25;10.75;;;7.03;;
56541;SDS011;42438;53.174;6.730;2023-06-22T10:49:56;10.82;;;6.80;;
56541;SDS011;42438;53.174;6.730;2023-06-22T10:52:27;13.48;;;8.60;;
56541;SDS011;42438;53.174;6.730;2023-06-22T10:54:57;9.55;;;7.15;;
56541;SDS011;42438;53.174;6.730;2023-06-22T10:57:28;12.05;;;7.65;;
56541;SDS011;42438;53.174;6.730;2023-06-22T10:59:59;10.63;;;7.10;;
56541;SDS011;42438;53.174;6.730;2023-06-22T11:02:29;10.85;;;6.82;;
56541;SDS011;42438;53.174;6.730;2023-06-22T11:05:00;11.55;;;7.63;;
56541;SDS011;42438;53.174;6.730;2023-06-22T11:07:31;10.75;;;6.47;;
56541;SDS011;42438;53.174;6.730;2023-06-22T11:10:02;10.13;;;6.70;;
56541;SDS011;42438;53.174;6.730;2023-06-22T11:12:33;9.48;;;6.35;;
56541;SDS011;42438;53.174;6.730;2023-06-22T11:15:04;9.50;;;7.13;;
56541;SDS011;42438;53.174;6.730;2023-06-22T11:17:35;11.77;;;6.72;;
56541;SDS011;42438;53.174;6.730;2023-06-22T11:20:06;10.50;;;7.72;;
56541;SDS011;42438;53.174;6.730;2023-06-22T11:22:40;10.68;;;7.45;;
56541;SDS011;42438;53.174;6.730;2023-06-22T11:25:11;10.20;;;6.88;;
56541;SDS011;42438;53.174;6.730;2023-06-22T11:27:42;11.00;;;6.25;;
56541;SDS011;42438;53.174;6.730;2023-06-22T11:30:13;9.40;;;5.65;;
56541;SDS011;42438;53.174;6.730;2023-06-22T11:32:43;8.63;;;6.10;;
56541;SDS011;42438;53.174;6.730;2023-06-22T11:35:14;8.75;;;6.18;;
56541;SDS011;42438;53.174;6.730;2023-06-22T11:37:45;9.77;;;6.95;;
56541;SDS011;42438;53.174;6.730;2023-06-22T11:40:16;9.60;;;6.60;;
56541;SDS011;42438;53.174;6.730;2023-06-22T11:42:47;8.20;;;6.00;;
56541;SDS011;42438;53.174;6.730;2023-06-22T11:45:18;8.48;;;5.65;;
56541;SDS011;42438;53.174;6.730;2023-06-22T11:47:50;9.70;;;6.03;;
56541;SDS011;42438;53.174;6.730;2023-06-22T11:50:21;8.82;;;6.00;;
56541;SDS011;42438;53.174;6.730;2023-06-22T11:52:52;9.55;;;5.68;;
56541;SDS011;42438;53.174;6.730;2023-06-22T11:55:23;8.23;;;5.80;;
56541;SDS011;42438;53.174;6.730;2023-06-22T11:57:57;7.90;;;5.93;;
56541;SDS011;42438;53.174;6.730;2023-06-22T12:00:33;8.80;;;5.80;;
56541;SDS011;42438;53.174;6.730;2023-06-22T12:03:04;10.43;;;5.43;;
56541;SDS011;42438;53.174;6.730;2023-06-22T12:05:34;7.85;;;4.95;;
56541;SDS011;42438;53.174;6.730;2023-06-22T12:08:05;7.47;;;5.10;;
56541;SDS011;42438;53.174;6.730;2023-06-22T12:10:36;9.20;;;5.40;;
56541;SDS011;42438;53.174;6.730;2023-06-22T12:13:06;7.63;;;5.20;;
56541;SDS011;42438;53.174;6.730;2023-06-22T12:15:37;7.80;;;5.85;;
56541;SDS011;42438;53.174;6.730;2023-06-22T12:18:08;7.85;;;5.57;;
56541;SDS011;42438;53.174;6.730;2023-06-22T12:20:39;8.90;;;5.72;;
56541;SDS011;42438;53.174;6.730;2023-06-22T12:23:09;10.05;;;6.40;;
56541;SDS011;42438;53.174;6.730;2023-06-22T12:25:40;8.07;;;5.95;;
56541;SDS011;42438;53.174;6.730;2023-06-22T12:28:11;8.68;;;5.57;;
56541;SDS011;42438;53.174;6.730;2023-06-22T12:30:41;9.63;;;5.20;;
56541;SDS011;42438;53.174;6.730;2023-06-22T12:33:12;7.25;;;5.47;;
56541;SDS011;42438;53.174;6.730;2023-06-22T12:35:43;8.93;;;5.28;;
56541;SDS011;42438;53.174;6.730;2023-06-22T12:38:15;11.20;;;7.90;;
56541;SDS011;42438;53.174;6.730;2023-06-22T12:40:45;9.32;;;6.85;;
56541;SDS011;42438;53.174;6.730;2023-06-22T12:43:17;9.75;;;6.25;;
56541;SDS011;42438;53.174;6.730;2023-06-22T12:45:48;11.95;;;7.07;;
56541;SDS011;42438;53.174;6.730;2023-06-22T12:48:18;10.52;;;7.07;;
56541;SDS011;42438;53.174;6.730;2023-06-22T12:50:49;10.45;;;6.13;;
56541;SDS011;42438;53.174;6.730;2023-06-22T12:53:20;8.50;;;5.72;;
56541;SDS011;42438;53.174;6.730;2023-06-22T12:55:52;10.13;;;6.00;;
56541;SDS011;42438;53.174;6.730;2023-06-22T12:58:23;8.75;;;5.78;;
56541;SDS011;42438;53.174;6.730;2023-06-22T13:00:53;9.55;;;6.13;;
56541;SDS011;42438;53.174;6.730;2023-06-22T13:03:24;8.98;;;6.28;;
56541;SDS011;42438;53.174;6.730;2023-06-22T13:05:56;9.85;;;5.78;;
56541;SDS011;42438;53.174;6.730;2023-06-22T13:08:27;10.50;;;5.22;;
56541;SDS011;42438;53.174;6.730;2023-06-22T13:10:58;8.02;;;5.60;;
56541;SDS011;42438;53.174;6.730;2023-06-22T13:13:28;8.43;;;5.32;;
56541;SDS011;42438;53.174;6.730;2023-06-22T13:15:59;9.00;;;5.40;;
56541;SDS011;42438;53.174;6.730;2023-06-22T13:18:30;9.13;;;5.70;;
56541;SDS011;42438;53.174;6.730;2023-06-22T13:21:01;7.55;;;4.90;;
56541;SDS011;42438;53.174;6.730;2023-06-22T13:23:32;10.50;;;5.47;;
56541;SDS011;42438;53.174;6.730;2023-06-22T13:26:04;9.07;;;5.10;;
56541;SDS011;42438;53.174;6.730;2023-06-22T13:28:34;9.10;;;5.05;;
56541;SDS011;42438;53.174;6.730;2023-06-22T13:31:05;9.07;;;5.97;;
56541;SDS011;42438;53.174;6.730;2023-06-22T13:33:36;8.43;;;5.20;;
56541;SDS011;42438;53.174;6.730;2023-06-22T13:36:08;6.53;;;4.47;;
56541;SDS011;42438;53.174;6.730;2023-06-22T13:38:38;7.97;;;5.55;;
56541;SDS011;42438;53.174;6.730;2023-06-22T13:41:09;7.30;;;4.70;;
56541;SDS011;42438;53.174;6.730;2023-06-22T13:43:40;7.18;;;4.53;;
56541;SDS011;42438;53.174;6.730;2023-06-22T13:46:11;8.68;;;4.68;;
56541;SDS011;42438;53.174;6.730;2023-06-22T13:48:41;8.07;;;4.65;;
56541;SDS011;42438;53.174;6.730;2023-06-22T13:51:12;6.88;;;4.07;;
56541;SDS011;42438;53.174;6.730;2023-06-22T13:53:43;5.82;;;3.83;;
56541;SDS011;42438;53.174;6.730;2023-06-22T13:56:13;6.20;;;4.20;;
56541;SDS011;42438;53.174;6.730;2023-06-22T13:58:44;5.88;;;4.05;;
56541;SDS011;42438;53.174;6.730;2023-06-22T14:01:15;7.97;;;4.95;;
56541;SDS011;42438;53.174;6.730;2023-06-22T14:03:46;7.97;;;4.22;;
56541;SDS011;42438;53.174;6.730;2023-06-22T14:06:18;6.82;;;3.72;;
56541;SDS011;42438;53.174;6.730;2023-06-22T14:08:48;5.93;;;3.72;;
56541;SDS011;42438;53.174;6.730;2023-06-22T14:11:21;7.22;;;4.57;;
56541;SDS011;42438;53.174;6.730;2023-06-22T14:13:51;6.22;;;4.10;;
56541;SDS011;42438;53.174;6.730;2023-06-22T14:16:22;6.93;;;3.90;;
56541;SDS011;42438;53.174;6.730;2023-06-22T14:18:53;5.35;;;3.13;;
56541;SDS011;42438;53.174;6.730;2023-06-22T14:21:25;5.80;;;3.30;;
56541;SDS011;42438;53.174;6.730;2023-06-22T14:23:56;6.53;;;3.03;;
56541;SDS011;42438;53.174;6.730;2023-06-22T14:26:26;5.50;;;3.33;;
56541;SDS011;42438;53.174;6.730;2023-06-22T14:28:57;6.60;;;4.00;;
56541;SDS011;42438;53.174;6.730;2023-06-22T14:31:28;4.47;;;3.00;;
56541;SDS011;42438;53.174;6.730;2023-06-22T14:33:59;4.40;;;2.80;;
56541;SDS011;42438;53.174;6.730;2023-06-22T14:36:30;5.72;;;3.20;;
56541;SDS011;42438;53.174;6.730;2023-06-22T14:39:01;4.45;;;3.08;;
56541;SDS011;42438;53.174;6.730;2023-06-22T14:41:32;4.90;;;2.75;;
56541;SDS011;42438;53.174;6.730;2023-06-22T14:44:02;5.60;;;2.80;;
56541;SDS011;42438;53.174;6.730;2023-06-22T14:46:33;6.05;;;3.25;;
56541;SDS011;42438;53.174;6.730;2023-06-22T14:49:04;5.57;;;3.28;;
56541;SDS011;42438;53.174;6.730;2023-06-22T14:51:34;5.03;;;2.72;;
56541;SDS011;42438;53.174;6.730;2023-06-22T14:54:05;4.55;;;3.10;;
56541;SDS011;42438;53.174;6.730;2023-06-22T14:56:36;5.88;;;2.65;;
56541;SDS011;42438;53.174;6.730;2023-06-22T14:59:06;4.45;;;2.70;;
56541;SDS011;42438;53.174;6.730;2023-06-22T15:01:38;4.97;;;2.80;;
56541;SDS011;42438;53.174;6.730;2023-06-22T15:04:09;5.05;;;2.90;;
56541;SDS011;42438;53.174;6.730;2023-06-22T15:06:40;4.30;;;2.60;;